Princeton, Minnesota
Current Conditions -  °F | °C
As of 8:34 AM on Thursday 30 Oct 2014 (Local Time) from KPNM Reporting Station
Broken Clouds Broken Clouds  
Wind Chill: 37°   Ceiling: 4500
Heat Index: 37°   Visibility: 10mi
Dew Point: 36°   Wind: 3mph
Humidity: 93%   Direction: 10°N
Pressure: 30.06"   Gusts: NA
Location:  45.56°N, 93.6°W
Report Text: KPNM 301334Z AUTO 01003KT 10SM BKN045 BKN110 03/02 A3006 RMK AO2
Loading
Personal Weather Stations






























Interactive Weather Map
Tropical Storm Tracking
New forecast layout! Learn more

10-Day Weather Forecast

Advertisements
Track Severe Weather on mobile